createdAt,value
2023-05-05T00:00:35.470Z,7.29
2023-05-05T00:03:16.884Z,7.37
2023-05-05T00:05:46.448Z,7.28
2023-05-05T00:08:15.921Z,7.35
2023-05-05T00:10:47.242Z,7.37
2023-05-05T00:13:16.667Z,7.42
2023-05-05T00:15:47.172Z,7.50
2023-05-05T00:18:19.490Z,7.52
2023-05-05T00:20:49.741Z,7.45
2023-05-05T00:23:20.512Z,7.42
2023-05-05T00:25:49.860Z,7.34
2023-05-05T00:28:19.217Z,7.23
2023-05-05T00:30:48.325Z,7.37
2023-05-05T00:33:19.202Z,7.46
2023-05-05T00:35:48.636Z,7.51
2023-05-05T00:38:18.130Z,7.51
2023-05-05T00:40:47.300Z,7.54
2023-05-05T00:43:16.738Z,7.45
2023-05-05T00:45:47.993Z,7.37
2023-05-05T00:48:19.601Z,7.48
2023-05-05T00:50:48.697Z,7.38
2023-05-05T00:53:18.028Z,7.40
2023-05-05T00:55:47.274Z,7.49
2023-05-05T00:58:17.157Z,7.37
2023-05-05T01:00:46.243Z,7.19
2023-05-05T01:03:15.703Z,7.38
2023-05-05T01:05:58.446Z,7.36
2023-05-05T01:08:41.873Z,7.37
2023-05-05T01:11:19.037Z,7.46
2023-05-05T01:13:58.112Z,7.50
2023-05-05T01:16:30.402Z,7.49
2023-05-05T01:19:09.084Z,7.33
2023-05-05T01:21:43.912Z,7.30
2023-05-05T01:24:31.052Z,7.35
2023-05-05T01:27:15.592Z,7.29
2023-05-05T01:30:03.274Z,7.34
2023-05-05T01:32:36.014Z,7.31
2023-05-05T01:35:11.356Z,7.18
2023-05-05T01:37:47.200Z,7.25
2023-05-05T01:40:20.122Z,7.29
2023-05-05T01:42:52.048Z,7.17
2023-05-05T01:45:26.052Z,7.16
2023-05-05T01:47:58.867Z,7.20
2023-05-05T01:50:30.650Z,7.23
2023-05-05T01:52:59.983Z,7.30
2023-05-05T01:55:31.058Z,7.09
2023-05-05T01:58:02.784Z,7.14
2023-05-05T02:00:32.928Z,7.13
2023-05-05T02:03:06.700Z,7.12
2023-05-05T02:05:37.154Z,7.14
2023-05-05T02:08:10.871Z,7.14
2023-05-05T02:10:41.624Z,6.93
2023-05-05T02:13:13.656Z,6.98
2023-05-05T02:15:45.014Z,7.01
2023-05-05T02:18:16.574Z,7.10
2023-05-05T02:20:47.720Z,7.00
2023-05-05T02:23:16.919Z,6.99
2023-05-05T02:25:53.089Z,6.95
2023-05-05T02:28:26.442Z,7.10
2023-05-05T02:31:00.788Z,7.03
2023-05-05T02:33:36.762Z,7.09
2023-05-05T02:36:12.551Z,6.94
2023-05-05T02:38:55.006Z,6.67
2023-05-05T02:41:28.326Z,6.75
2023-05-05T02:44:00.783Z,6.78
2023-05-05T02:46:30.947Z,6.79
2023-05-05T02:49:01.572Z,6.73
2023-05-05T02:51:30.969Z,6.78
2023-05-05T02:54:02.987Z,6.82
2023-05-05T02:56:44.127Z,6.65
2023-05-05T02:59:17.416Z,6.71
2023-05-05T03:02:01.814Z,6.79
2023-05-05T03:04:40.331Z,6.78
2023-05-05T03:07:14.524Z,6.72
2023-05-05T03:09:52.951Z,6.55
2023-05-05T03:12:28.624Z,6.61
2023-05-05T03:15:15.355Z,6.55
2023-05-05T03:17:46.436Z,6.49
2023-05-05T03:20:18.700Z,6.46
2023-05-05T03:22:51.843Z,6.49
2023-05-05T03:25:20.943Z,6.50
2023-05-05T03:30:22.733Z,6.39
2023-05-05T03:32:54.154Z,6.45
2023-05-05T03:35:25.015Z,6.44
2023-05-05T03:37:55.560Z,6.46
2023-05-05T03:40:36.254Z,6.45
2023-05-05T03:43:13.369Z,6.42
2023-05-05T03:45:42.647Z,6.34
2023-05-05T03:48:12.221Z,6.14
2023-05-05T03:50:46.734Z,6.22
2023-05-05T03:53:17.946Z,6.19
2023-05-05T03:55:47.347Z,6.18
2023-05-05T03:58:16.699Z,6.03
2023-05-05T04:00:46.370Z,6.05
2023-05-05T04:03:16.350Z,6.26
2023-05-05T04:05:47.128Z,6.28
2023-05-05T04:08:16.684Z,6.21
2023-05-05T04:10:45.756Z,6.28
2023-05-05T04:13:15.867Z,6.27
2023-05-05T04:15:48.764Z,6.34
2023-05-05T04:18:19.687Z,6.29
2023-05-05T04:20:50.577Z,6.22
2023-05-05T04:23:20.119Z,6.26
2023-05-05T04:25:50.030Z,6.37
2023-05-05T04:28:21.770Z,6.30
2023-05-05T04:30:51.792Z,6.28
2023-05-05T04:33:21.152Z,6.32
2023-05-05T04:35:53.264Z,6.37
2023-05-05T04:38:22.763Z,6.39
2023-05-05T04:40:52.471Z,6.37
2023-05-05T04:43:22.105Z,6.21
2023-05-05T04:45:54.764Z,6.27
2023-05-05T04:48:27.359Z,6.31
2023-05-05T04:50:57.804Z,6.37
2023-05-05T04:53:27.288Z,6.26
2023-05-05T04:55:56.533Z,6.40
2023-05-05T04:58:25.889Z,6.49
2023-05-05T05:00:54.946Z,6.51
2023-05-05T05:03:24.533Z,6.56
2023-05-05T05:05:54.146Z,6.54
2023-05-05T05:08:25.207Z,6.54
2023-05-05T05:10:54.279Z,6.66
2023-05-05T05:13:23.623Z,6.67
2023-05-05T05:15:53.288Z,6.65
2023-05-05T05:18:22.764Z,6.70
2023-05-05T05:20:52.774Z,6.64
2023-05-05T05:23:22.515Z,6.65
2023-05-05T05:25:53.178Z,6.71
2023-05-05T05:28:24.192Z,6.68
2023-05-05T05:30:58.484Z,6.80
2023-05-05T05:33:28.050Z,6.80
2023-05-05T05:35:58.803Z,6.79
2023-05-05T05:38:29.264Z,6.77
2023-05-05T05:41:07.908Z,6.89
2023-05-05T05:43:39.102Z,6.83
2023-05-05T05:46:09.380Z,6.83
2023-05-05T05:48:40.912Z,6.80
2023-05-05T05:51:10.781Z,6.94
2023-05-05T05:53:40.374Z,6.98
2023-05-05T05:56:12.365Z,6.89
2023-05-05T05:58:42.508Z,7.01
2023-05-05T06:01:12.318Z,7.08
2023-05-05T06:03:41.816Z,7.15
2023-05-05T06:06:11.031Z,7.21
2023-05-05T06:08:40.485Z,7.21
2023-05-05T06:11:11.033Z,7.25
2023-05-05T06:13:40.454Z,7.28
2023-05-05T06:16:10.044Z,7.38
2023-05-05T06:18:41.276Z,7.34
2023-05-05T06:21:10.500Z,7.45
2023-05-05T06:23:39.967Z,7.51
2023-05-05T06:26:11.119Z,7.57
2023-05-05T06:28:41.405Z,7.56
2023-05-05T06:31:12.959Z,7.62
2023-05-05T06:33:42.452Z,7.73
2023-05-05T06:36:11.592Z,7.72
2023-05-05T06:38:41.482Z,7.76
2023-05-05T06:41:12.005Z,7.82
2023-05-05T06:43:43.101Z,7.85
2023-05-05T06:46:14.731Z,7.82
2023-05-05T06:48:44.119Z,7.91
2023-05-05T06:51:13.242Z,7.97
2023-05-05T06:53:42.529Z,8.08
2023-05-05T06:56:13.000Z,8.15
2023-05-05T06:58:42.391Z,8.10
2023-05-05T07:01:11.437Z,8.10
2023-05-05T07:03:41.044Z,8.28
2023-05-05T07:06:10.313Z,8.36
2023-05-05T07:08:39.674Z,8.38
2023-05-05T07:11:08.816Z,8.45
2023-05-05T07:13:39.523Z,8.49
2023-05-05T07:16:08.999Z,8.57
2023-05-05T07:18:38.445Z,8.66
2023-05-05T07:21:07.669Z,8.70
2023-05-05T07:23:38.113Z,8.71
2023-05-05T07:26:07.313Z,8.68
2023-05-05T07:28:38.462Z,8.83
2023-05-05T07:31:07.570Z,8.92
2023-05-05T07:33:36.917Z,8.99
2023-05-05T07:36:06.758Z,9.02
2023-05-05T07:38:36.209Z,9.04
2023-05-05T07:41:05.354Z,9.06
2023-05-05T07:43:34.777Z,8.97
2023-05-05T07:46:05.519Z,8.91
2023-05-05T07:48:35.049Z,8.94
2023-05-05T07:51:04.093Z,8.99
2023-05-05T07:53:33.566Z,9.05
2023-05-05T07:56:02.758Z,9.07
2023-05-05T07:58:32.138Z,9.22
2023-05-05T08:01:02.563Z,9.25
2023-05-05T08:03:33.531Z,9.37
2023-05-05T08:06:09.713Z,9.37
2023-05-05T08:08:39.444Z,9.28
2023-05-05T08:11:08.568Z,9.22
2023-05-05T08:13:39.259Z,9.28
2023-05-05T08:16:08.902Z,9.36
2023-05-05T08:18:39.924Z,9.48
2023-05-05T08:21:10.185Z,9.50
2023-05-05T08:23:40.833Z,9.51
2023-05-05T08:26:10.319Z,9.52
2023-05-05T08:28:39.746Z,9.49
2023-05-05T08:31:09.320Z,9.57
2023-05-05T08:33:40.312Z,9.68
2023-05-05T08:36:09.509Z,9.83
2023-05-05T08:38:38.808Z,9.88
2023-05-05T08:41:11.182Z,10.00
2023-05-05T08:43:41.309Z,9.96
2023-05-05T08:46:12.752Z,10.05
2023-05-05T08:48:45.223Z,10.18
2023-05-05T08:51:18.272Z,10.32
2023-05-05T08:53:58.139Z,10.40
2023-05-05T08:56:33.214Z,10.37
2023-05-05T08:59:03.648Z,10.38
2023-05-05T09:01:33.295Z,10.51
2023-05-05T09:04:07.780Z,10.58
2023-05-05T09:06:37.344Z,10.65
2023-05-05T09:09:07.639Z,10.83
2023-05-05T09:11:37.901Z,10.82
2023-05-05T09:14:07.330Z,10.87
2023-05-05T09:16:36.429Z,10.90
2023-05-05T09:19:07.319Z,10.65
2023-05-05T09:21:36.544Z,10.66
2023-05-05T09:24:09.323Z,10.80
2023-05-05T09:26:39.731Z,10.78
2023-05-05T09:29:09.410Z,10.87
2023-05-05T09:31:39.040Z,10.85
2023-05-05T09:34:19.036Z,10.89
2023-05-05T09:36:49.469Z,11.01
2023-05-05T09:39:20.305Z,11.08
2023-05-05T09:41:49.500Z,11.04
2023-05-05T09:44:33.556Z,11.01
2023-05-05T09:47:05.375Z,10.94
2023-05-05T09:49:40.759Z,11.15
2023-05-05T09:52:16.973Z,11.21
2023-05-05T09:54:46.523Z,11.27
2023-05-05T09:57:28.455Z,11.33
2023-05-05T09:59:59.406Z,11.23
2023-05-05T10:02:37.072Z,11.27
2023-05-05T10:05:11.194Z,11.25
2023-05-05T10:07:43.233Z,11.31
2023-05-05T10:10:19.889Z,11.39
2023-05-05T10:12:51.390Z,11.39
2023-05-05T10:15:23.761Z,11.47
2023-05-05T10:18:06.990Z,11.43
2023-05-05T10:20:43.275Z,11.42
2023-05-05T10:23:19.989Z,11.53
2023-05-05T10:25:56.547Z,11.55
2023-05-05T10:28:36.415Z,11.57
2023-05-05T10:31:19.959Z,11.57
2023-05-05T10:33:59.769Z,11.68
2023-05-05T10:36:31.898Z,11.75
2023-05-05T10:39:02.515Z,11.87
2023-05-05T10:41:34.195Z,11.98
2023-05-05T10:44:04.559Z,11.88
2023-05-05T10:46:34.501Z,11.98
2023-05-05T10:49:13.085Z,12.05
2023-05-05T10:51:54.097Z,12.03
2023-05-05T10:54:25.854Z,11.84
2023-05-05T10:56:55.572Z,11.86
2023-05-05T10:59:44.316Z,11.99
2023-05-05T11:02:25.361Z,11.92
2023-05-05T11:05:10.678Z,12.03
2023-05-05T11:07:42.016Z,11.97
2023-05-05T11:10:12.715Z,12.00
2023-05-05T11:13:27.532Z,12.20
2023-05-05T11:15:57.783Z,12.14
2023-05-05T11:18:34.027Z,11.95
2023-05-05T11:21:17.249Z,12.01
2023-05-05T11:23:50.066Z,11.85
2023-05-05T11:26:40.364Z,11.94
2023-05-05T11:29:10.024Z,11.89
2023-05-05T11:31:39.193Z,11.94
2023-05-05T11:34:28.927Z,12.17
2023-05-05T11:37:02.735Z,12.23
2023-05-05T11:39:43.853Z,12.32
2023-05-05T11:42:26.981Z,12.44
2023-05-05T11:44:57.116Z,12.37
2023-05-05T11:47:33.621Z,12.40
2023-05-05T11:50:21.469Z,12.01
2023-05-05T11:52:50.630Z,12.01
2023-05-05T11:55:24.933Z,12.20
2023-05-05T11:57:54.164Z,12.21
2023-05-05T12:00:34.294Z,12.16
2023-05-05T12:03:03.659Z,11.78
2023-05-05T12:05:36.317Z,11.95
2023-05-05T12:08:06.265Z,12.15
2023-05-05T12:10:37.053Z,12.24
2023-05-05T12:13:06.253Z,12.00
2023-05-05T12:15:35.757Z,12.00
2023-05-05T12:18:06.536Z,12.13
2023-05-05T12:20:37.205Z,11.99
2023-05-05T12:23:06.776Z,12.12
2023-05-05T12:25:41.944Z,12.12
2023-05-05T12:28:11.254Z,12.06
2023-05-05T12:30:40.993Z,11.90
2023-05-05T12:33:12.907Z,11.97
2023-05-05T12:35:42.908Z,12.01
2023-05-05T12:38:12.041Z,11.81
2023-05-05T12:40:47.109Z,11.99
2023-05-05T12:43:27.252Z,11.71
2023-05-05T12:46:07.996Z,11.71
2023-05-05T12:48:40.552Z,11.74
2023-05-05T12:51:18.016Z,11.83
2023-05-05T12:53:48.059Z,11.75
2023-05-05T12:56:36.323Z,11.45
2023-05-05T12:59:06.813Z,11.53
2023-05-05T13:01:37.196Z,11.71
2023-05-05T13:04:07.298Z,11.76
2023-05-05T13:06:37.799Z,11.49
2023-05-05T13:09:07.699Z,11.42
2023-05-05T13:11:38.479Z,11.51
2023-05-05T13:14:14.332Z,11.51
2023-05-05T13:16:43.941Z,11.57
2023-05-05T13:19:13.097Z,11.34
2023-05-05T13:21:42.878Z,11.32
2023-05-05T13:24:22.930Z,11.43
2023-05-05T13:26:57.248Z,11.43
2023-05-05T13:29:30.410Z,11.04
2023-05-05T13:32:01.094Z,11.01
2023-05-05T13:34:30.243Z,11.08
2023-05-05T13:36:59.574Z,10.93
2023-05-05T13:39:28.730Z,10.83
2023-05-05T13:41:59.462Z,11.00
2023-05-05T13:44:28.586Z,11.13
2023-05-05T13:46:58.096Z,11.10
2023-05-05T13:49:27.249Z,10.72
2023-05-05T13:51:57.011Z,10.85
2023-05-05T13:54:26.131Z,10.78
2023-05-05T13:56:55.444Z,10.87
2023-05-05T13:59:27.421Z,10.78
2023-05-05T14:01:56.774Z,10.65
2023-05-05T14:04:26.027Z,10.68
2023-05-05T14:06:55.504Z,10.73
2023-05-05T14:09:24.731Z,10.75
2023-05-05T14:11:54.167Z,10.85
2023-05-05T14:14:24.681Z,10.57
2023-05-05T14:16:54.398Z,10.63
2023-05-05T14:19:23.508Z,10.58
2023-05-05T14:21:52.895Z,10.41
2023-05-05T14:24:21.990Z,10.61
2023-05-05T14:26:51.401Z,10.61
2023-05-05T14:29:20.600Z,10.80
2023-05-05T14:31:51.342Z,10.69
2023-05-05T14:34:20.507Z,10.65
2023-05-05T14:36:49.966Z,10.55
2023-05-05T14:39:19.050Z,10.80
2023-05-05T14:41:48.454Z,10.57
2023-05-05T14:44:18.075Z,10.48
2023-05-05T14:46:49.017Z,10.46
2023-05-05T14:49:20.899Z,10.38
2023-05-05T14:51:50.554Z,10.17
2023-05-05T14:54:27.969Z,10.54
2023-05-05T14:56:58.424Z,10.79
2023-05-05T14:59:27.626Z,10.73
2023-05-05T15:01:57.266Z,10.64
2023-05-05T15:04:27.852Z,10.64
2023-05-05T15:06:57.214Z,10.71
2023-05-05T15:09:26.311Z,10.78
2023-05-05T15:11:55.731Z,10.56
2023-05-05T15:14:24.736Z,10.64
2023-05-05T15:16:54.101Z,10.34
2023-05-05T15:19:23.233Z,10.48
2023-05-05T15:21:54.210Z,10.75
2023-05-05T15:24:23.348Z,11.04
2023-05-05T15:26:52.694Z,11.54
2023-05-05T15:29:21.772Z,11.87
2023-05-05T15:31:51.123Z,12.67
2023-05-05T15:34:20.181Z,12.69
2023-05-05T15:36:49.632Z,12.98
2023-05-05T15:39:20.146Z,12.76
2023-05-05T15:41:49.489Z,12.74
2023-05-05T15:44:18.545Z,12.64
2023-05-05T15:46:50.381Z,12.49
2023-05-05T15:49:19.691Z,12.68
2023-05-05T15:51:49.246Z,12.39
2023-05-05T15:54:20.378Z,12.55
2023-05-05T15:56:49.920Z,12.21
2023-05-05T15:59:19.301Z,12.31
2023-05-05T16:01:49.884Z,12.47
2023-05-05T16:04:20.376Z,12.11
2023-05-05T16:06:51.590Z,12.25
2023-05-05T16:09:25.589Z,11.80
2023-05-05T16:11:57.882Z,11.28
2023-05-05T16:14:31.594Z,11.26
2023-05-05T16:17:06.366Z,10.92
2023-05-05T16:19:39.090Z,10.87
2023-05-05T16:22:10.357Z,10.70
2023-05-05T16:24:44.212Z,10.28
2023-05-05T16:27:15.535Z,10.02
2023-05-05T16:29:45.947Z,10.11
2023-05-05T16:32:16.321Z,9.91
2023-05-05T16:34:47.040Z,9.91
2023-05-05T16:37:17.048Z,9.78
2023-05-05T16:39:47.602Z,9.41
2023-05-05T16:42:16.982Z,9.37
2023-05-05T16:44:47.843Z,9.20
2023-05-05T16:47:19.466Z,9.22
2023-05-05T16:49:50.112Z,9.16
2023-05-05T16:52:21.851Z,8.95
2023-05-05T16:54:57.047Z,8.76
2023-05-05T16:57:27.296Z,8.80
2023-05-05T17:00:02.171Z,8.81
2023-05-05T17:02:33.691Z,8.74
2023-05-05T17:05:05.579Z,8.57
2023-05-05T17:07:37.877Z,8.49
2023-05-05T17:10:12.046Z,8.50
2023-05-05T17:12:44.866Z,8.03
2023-05-05T17:15:14.629Z,8.07
2023-05-05T17:17:44.007Z,8.15
2023-05-05T17:20:14.465Z,8.08
2023-05-05T17:22:46.549Z,8.06
2023-05-05T17:25:17.428Z,8.16
2023-05-05T17:27:47.615Z,7.78
2023-05-05T17:30:17.806Z,7.63
2023-05-05T17:32:47.310Z,7.74
2023-05-05T17:35:17.336Z,7.87
2023-05-05T17:37:47.275Z,7.73
2023-05-05T17:40:19.370Z,7.67
2023-05-05T17:42:50.295Z,7.69
2023-05-05T17:45:21.318Z,7.59
2023-05-05T17:47:51.601Z,7.48
2023-05-05T17:50:20.817Z,7.47
2023-05-05T17:52:50.164Z,7.28
2023-05-05T17:55:20.872Z,7.53
2023-05-05T17:57:50.329Z,7.20
2023-05-05T18:00:20.219Z,7.27
2023-05-05T18:02:49.540Z,7.28
2023-05-05T18:05:18.591Z,7.34
2023-05-05T18:07:47.917Z,7.16
2023-05-05T18:10:16.970Z,7.13
2023-05-05T18:12:48.179Z,7.16
2023-05-05T18:15:17.307Z,7.07
2023-05-05T18:17:46.608Z,6.90
2023-05-05T18:20:16.175Z,6.88
2023-05-05T18:22:46.134Z,7.08
2023-05-05T18:25:15.221Z,7.02
2023-05-05T18:27:46.821Z,7.04
2023-05-05T18:30:16.349Z,6.93
2023-05-05T18:32:46.264Z,6.86
2023-05-05T18:35:15.611Z,6.87
2023-05-05T18:37:45.037Z,6.91
2023-05-05T18:40:14.580Z,6.91
2023-05-05T18:42:44.088Z,6.70
2023-05-05T18:45:14.680Z,6.80
2023-05-05T18:47:44.241Z,6.85
2023-05-05T18:50:13.622Z,6.89
2023-05-05T18:52:42.961Z,6.72
2023-05-05T18:55:12.432Z,6.61
2023-05-05T18:57:42.798Z,6.60
2023-05-05T19:00:14.599Z,6.62
2023-05-05T19:02:44.330Z,6.49
2023-05-05T19:05:14.141Z,6.57
2023-05-05T19:07:43.487Z,6.58
2023-05-05T19:10:12.996Z,6.59
2023-05-05T19:12:42.394Z,6.44
2023-05-05T19:15:13.298Z,6.54
2023-05-05T19:17:44.137Z,6.52
2023-05-05T19:20:15.827Z,6.51
2023-05-05T19:22:46.245Z,6.50
2023-05-05T19:25:17.673Z,6.45
2023-05-05T19:27:47.114Z,6.50
2023-05-05T19:30:16.351Z,6.41
2023-05-05T19:32:47.713Z,6.46
2023-05-05T19:35:17.039Z,6.40
2023-05-05T19:37:46.438Z,6.28
2023-05-05T19:40:16.674Z,6.36
2023-05-05T19:42:46.074Z,6.47
2023-05-05T19:45:15.472Z,6.31
2023-05-05T19:47:46.327Z,6.33
2023-05-05T19:50:16.550Z,6.33
2023-05-05T19:52:45.977Z,6.28
2023-05-05T19:55:15.145Z,6.37
2023-05-05T19:57:44.506Z,6.45
2023-05-05T20:00:14.671Z,6.47
2023-05-05T20:02:45.349Z,6.39
2023-05-05T20:05:17.523Z,6.45
2023-05-05T20:07:47.486Z,6.35
2023-05-05T20:10:16.749Z,6.29
2023-05-05T20:12:48.377Z,6.28
2023-05-05T20:15:18.861Z,6.28
2023-05-05T20:17:48.886Z,6.20
2023-05-05T20:20:21.614Z,6.09
2023-05-05T20:22:51.391Z,6.13
2023-05-05T20:25:20.387Z,6.21
2023-05-05T20:27:49.804Z,6.29
2023-05-05T20:30:18.816Z,6.30
2023-05-05T20:32:48.273Z,6.19
2023-05-05T20:35:18.760Z,6.20
2023-05-05T20:37:48.726Z,6.23
2023-05-05T20:40:18.288Z,6.19
2023-05-05T20:42:47.638Z,6.14
2023-05-05T20:45:16.868Z,6.28
2023-05-05T20:47:46.230Z,6.23
2023-05-05T20:50:15.834Z,6.17
2023-05-05T20:52:46.521Z,6.19
2023-05-05T20:55:15.666Z,6.21
2023-05-05T20:57:44.980Z,6.24
2023-05-05T21:00:14.585Z,6.21
2023-05-05T21:02:43.992Z,6.23
2023-05-05T21:05:13.461Z,6.11
2023-05-05T21:07:42.846Z,6.22
2023-05-05T21:10:13.630Z,6.19
2023-05-05T21:12:43.307Z,6.21
2023-05-05T21:15:13.156Z,6.23
2023-05-05T21:17:42.552Z,6.22
2023-05-05T21:20:13.098Z,6.22
2023-05-05T21:22:42.689Z,6.08
2023-05-05T21:25:18.109Z,6.19
2023-05-05T21:27:48.710Z,6.07
2023-05-05T21:30:18.113Z,6.15
2023-05-05T21:32:47.732Z,6.13
2023-05-05T21:35:16.841Z,6.17
2023-05-05T21:37:46.235Z,6.14
2023-05-05T21:40:16.896Z,6.04
2023-05-05T21:42:46.328Z,6.06
2023-05-05T21:45:15.364Z,6.14
2023-05-05T21:47:44.807Z,6.18
2023-05-05T21:50:14.241Z,6.14
2023-05-05T21:52:43.584Z,6.09
2023-05-05T21:55:12.579Z,6.19
2023-05-05T21:57:43.401Z,6.21
2023-05-05T22:00:16.777Z,6.25
2023-05-05T22:02:46.751Z,6.23
2023-05-05T22:05:15.693Z,6.17
2023-05-05T22:07:44.907Z,6.05
2023-05-05T22:10:13.980Z,6.10
2023-05-05T22:12:44.847Z,6.16
2023-05-05T22:15:14.023Z,6.19
2023-05-05T22:17:43.315Z,6.07
2023-05-05T22:20:12.980Z,6.13
2023-05-05T22:22:42.353Z,6.06
2023-05-05T22:25:12.017Z,6.17
2023-05-05T22:27:41.428Z,6.18
2023-05-05T22:30:13.270Z,6.16
2023-05-05T22:32:43.523Z,6.17
2023-05-05T22:35:13.264Z,6.15
2023-05-05T22:37:42.566Z,6.05
2023-05-05T22:40:13.026Z,6.00
2023-05-05T22:42:42.415Z,6.08
2023-05-05T22:45:14.111Z,6.14
2023-05-05T22:47:44.225Z,6.15
2023-05-05T22:50:13.316Z,6.16
2023-05-05T22:52:42.767Z,6.17
2023-05-05T22:55:12.761Z,6.16
2023-05-05T22:57:42.586Z,6.06
2023-05-05T23:00:14.678Z,6.12
2023-05-05T23:02:44.175Z,6.13
2023-05-05T23:05:13.159Z,6.07
2023-05-05T23:07:42.383Z,6.06
2023-05-05T23:10:12.012Z,6.07
2023-05-05T23:12:41.268Z,6.09
2023-05-05T23:15:12.927Z,6.09
2023-05-05T23:17:42.260Z,6.04
2023-05-05T23:20:13.336Z,6.07
2023-05-05T23:22:43.727Z,6.09
2023-05-05T23:25:12.901Z,6.08
2023-05-05T23:27:42.347Z,6.07
2023-05-05T23:30:13.905Z,6.03
2023-05-05T23:32:44.966Z,5.99
2023-05-05T23:35:14.204Z,5.97
2023-05-05T23:37:43.552Z,5.85
2023-05-05T23:40:12.798Z,5.91
2023-05-05T23:42:41.972Z,5.95
2023-05-05T23:45:13.395Z,5.96
2023-05-05T23:47:42.835Z,5.94
2023-05-05T23:50:12.289Z,5.95
2023-05-05T23:52:41.826Z,5.91
2023-05-05T23:55:11.366Z,5.93
2023-05-05T23:57:40.834Z,5.94
